Time;durP1;ratioP1;P1;durP2;ratioP2;P2;SDS_P1;SDS_P2;PMS_P1;PMS_P2;Temp;Humidity;BMP_temperature;BMP_pressure;BME280_temperature;BME280_humidity;BME280_pressure;Samples;Min_cycle;Max_cycle;Signal;HPM_P1;HPM_P2
2021/04/07 00:00:53;;;;;;;3.00;2.47;;;0.20;99.90;;;;;;6255386;28;20692;-67
2021/04/07 00:03:54;;;;;;;4.73;3.20;;;0.10;99.90;;;;;;6238160;28;20576;-67
2021/04/07 00:06:56;;;;;;;3.53;2.70;;;0.10;99.90;;;;;;6229878;28;20247;-67
2021/04/07 00:09:59;;;;;;;3.63;2.80;;;0.10;99.90;;;;;;6229814;28;20219;-67
2021/04/07 00:13:03;;;;;;;4.50;3.00;;;0.10;99.90;;;;;;6230122;28;20220;-67
2021/04/07 00:16:05;;;;;;;3.90;2.60;;;0.10;99.90;;;;;;6233127;28;20622;-67
2021/04/07 00:19:08;;;;;;;4.00;3.00;;;0.10;99.90;;;;;;6232937;28;20254;-67
2021/04/07 00:22:09;;;;;;;3.23;2.57;;;0.10;99.90;;;;;;6233671;28;20326;-67
2021/04/07 00:25:12;;;;;;;6.90;3.30;;;0.10;99.90;;;;;;6246736;28;20281;-67
2021/04/07 00:28:19;;;;;;;3.50;2.60;;;0.10;99.90;;;;;;6229923;28;20232;-67
2021/04/07 00:31:21;;;;;;;2.87;2.53;;;0.10;99.90;;;;;;6231239;28;20255;-67
2021/04/07 00:34:22;;;;;;;4.80;2.80;;;0.10;99.90;;;;;;6230178;28;20224;-67
2021/04/07 00:37:24;;;;;;;3.40;2.90;;;0.10;99.90;;;;;;6231266;28;20524;-67
2021/04/07 00:40:26;;;;;;;3.13;2.83;;;0.20;99.90;;;;;;6231126;28;20285;-67
2021/04/07 00:43:28;;;;;;;2.73;2.47;;;0.20;99.90;;;;;;6231400;28;20325;-67
2021/04/07 00:46:36;;;;;;;3.97;3.17;;;0.20;99.90;;;;;;6232258;28;20235;-67
2021/04/07 00:49:38;;;;;;;3.90;3.20;;;0.20;99.90;;;;;;6231950;28;20317;-67
2021/04/07 00:52:40;;;;;;;4.20;2.77;;;0.20;99.90;;;;;;6232252;28;20231;-67
2021/04/07 00:55:50;;;;;;;3.40;2.83;;;0.20;99.90;;;;;;6230767;28;20772;-67
2021/04/07 00:58:52;;;;;;;3.60;2.30;;;0.20;99.90;;;;;;6231964;28;20230;-67
2021/04/07 01:01:55;;;;;;;3.37;3.07;;;0.20;99.90;;;;;;6232141;28;20229;-67
2021/04/07 01:04:58;;;;;;;4.10;3.10;;;0.20;99.90;;;;;;6230733;28;20794;-67
2021/04/07 01:08:00;;;;;;;4.17;3.17;;;0.20;99.90;;;;;;6231305;28;20749;-67
2021/04/07 01:11:02;;;;;;;3.83;2.80;;;0.30;99.90;;;;;;6229163;28;20575;-67
2021/04/07 01:14:04;;;;;;;5.33;3.00;;;0.20;99.90;;;;;;6229219;28;20247;-67
2021/04/07 01:17:09;;;;;;;3.83;3.47;;;0.10;99.90;;;;;;6236824;28;20231;-67
2021/04/07 01:20:15;;;;;;;4.00;3.13;;;0.10;99.90;;;;;;6235348;28;20635;-67
2021/04/07 01:23:18;;;;;;;4.03;3.20;;;0.20;99.90;;;;;;6245588;28;20765;-67
2021/04/07 01:26:20;;;;;;;3.40;3.10;;;0.20;99.90;;;;;;6244156;28;20238;-67
2021/04/07 01:29:22;;;;;;;4.77;3.77;;;0.20;99.90;;;;;;6235959;28;20329;-67
2021/04/07 01:32:24;;;;;;;3.63;3.00;;;0.20;99.90;;;;;;6235181;28;20231;-67
2021/04/07 01:35:26;;;;;;;4.13;3.73;;;0.30;99.90;;;;;;6235167;28;20235;-67
2021/04/07 01:38:28;;;;;;;3.47;3.17;;;0.20;99.90;;;;;;6234213;28;20287;-67
2021/04/07 01:41:30;;;;;;;3.90;3.43;;;0.30;99.90;;;;;;6236159;28;20330;-67
2021/04/07 01:44:35;;;;;;;4.77;4.10;;;0.20;99.90;;;;;;6236244;28;20219;-67
2021/04/07 01:47:37;;;;;;;4.30;3.60;;;0.20;99.90;;;;;;6235383;28;20597;-67
2021/04/07 01:50:46;;;;;;;4.43;3.77;;;0.20;99.90;;;;;;6234114;28;20224;-67
2021/04/07 01:53:48;;;;;;;4.27;3.70;;;0.20;99.90;;;;;;6235803;28;20257;-67
2021/04/07 01:56:53;;;;;;;4.07;3.47;;;0.20;99.90;;;;;;6234663;28;20373;-67
2021/04/07 01:59:54;;;;;;;4.97;3.93;;;0.20;99.90;;;;;;6238798;28;20601;-67
2021/04/07 02:02:56;;;;;;;4.73;4.00;;;0.20;99.90;;;;;;6232901;28;20735;-67
2021/04/07 02:05:59;;;;;;;4.77;3.90;;;0.20;99.90;;;;;;6217981;28;20236;-67
2021/04/07 02:09:00;;;;;;;6.23;4.23;;;0.20;99.90;;;;;;6235076;28;20227;-67
2021/04/07 02:12:03;;;;;;;5.57;4.30;;;0.10;99.90;;;;;;6233405;28;20228;-67
2021/04/07 02:15:25;;;;;;;6.40;4.40;;;0.10;99.90;;;;;;6234315;28;20762;-67
2021/04/07 02:18:27;;;;;;;5.60;3.80;;;0.10;99.90;;;;;;6234483;28;20706;-67
2021/04/07 02:21:29;;;;;;;6.27;4.50;;;0.10;99.90;;;;;;6233543;28;20235;-67
2021/04/07 02:24:30;;;;;;;5.87;3.90;;;0.00;99.90;;;;;;6255813;28;20358;-67
2021/04/07 02:27:34;;;;;;;4.37;3.80;;;0.00;99.90;;;;;;6256655;28;20364;-67
2021/04/07 02:30:36;;;;;;;5.13;3.83;;;0.00;99.90;;;;;;6259792;28;20372;-67
2021/04/07 02:33:38;;;;;;;4.43;3.50;;;0.00;99.90;;;;;;6257785;28;20223;-67
2021/04/07 02:36:40;;;;;;;4.90;3.70;;;0.00;99.90;;;;;;6258111;28;20245;-67
2021/04/07 02:39:43;;;;;;;5.53;4.53;;;-0.10;99.90;;;;;;6258476;28;20269;-67
2021/04/07 02:42:45;;;;;;;5.83;4.27;;;-0.10;99.90;;;;;;6258082;28;20231;-67
2021/04/07 02:45:47;;;;;;;4.63;3.83;;;-0.10;99.90;;;;;;6259108;28;20940;-67
2021/04/07 02:48:49;;;;;;;5.03;3.70;;;-0.10;99.90;;;;;;6258242;28;20389;-67
2021/04/07 02:51:51;;;;;;;4.80;4.30;;;-0.10;99.90;;;;;;6256747;28;20314;-67
2021/04/07 02:54:53;;;;;;;5.13;3.97;;;-0.10;99.90;;;;;;6259366;28;20368;-67
2021/04/07 02:57:55;;;;;;;6.17;4.50;;;-0.10;99.90;;;;;;6258533;28;20223;-67
2021/04/07 03:00:57;;;;;;;5.47;4.47;;;0.00;99.90;;;;;;6240079;28;20229;-67
2021/04/07 03:04:00;;;;;;;5.63;4.40;;;-0.10;99.90;;;;;;6259348;28;20223;-67
2021/04/07 03:07:02;;;;;;;7.93;4.70;;;-0.10;99.90;;;;;;6258336;28;20300;-67
2021/04/07 03:10:04;;;;;;;4.63;4.10;;;-0.20;99.90;;;;;;6255977;28;20690;-67
2021/04/07 03:13:06;;;;;;;6.80;4.93;;;-0.10;99.90;;;;;;6257362;28;20884;-67
2021/04/07 03:16:07;;;;;;;5.60;4.67;;;-0.10;99.90;;;;;;6257543;28;20239;-67
2021/04/07 03:19:09;;;;;;;5.17;4.47;;;0.00;99.90;;;;;;6257244;28;20227;-67
2021/04/07 03:22:11;;;;;;;5.30;4.27;;;0.00;99.90;;;;;;6258377;28;20260;-67
2021/04/07 03:25:13;;;;;;;5.93;4.63;;;0.00;99.90;;;;;;6231644;28;20322;-67
2021/04/07 03:28:15;;;;;;;4.73;3.90;;;0.00;99.90;;;;;;6232136;28;20778;-67
2021/04/07 03:31:17;;;;;;;5.13;4.33;;;0.00;99.90;;;;;;6231948;28;20270;-67
2021/04/07 03:34:19;;;;;;;5.00;4.30;;;0.00;99.90;;;;;;6232960;28;20581;-67
2021/04/07 03:37:20;;;;;;;4.87;4.10;;;-0.10;99.90;;;;;;6231633;28;20707;-67
2021/04/07 03:40:22;;;;;;;7.07;4.30;;;-0.10;99.90;;;;;;6229372;28;20376;-67
2021/04/07 03:43:24;;;;;;;5.40;3.57;;;-0.10;99.90;;;;;;6231226;28;20273;-67
2021/04/07 03:46:26;;;;;;;7.23;4.10;;;0.00;99.90;;;;;;6233095;28;20695;-67
2021/04/07 03:49:31;;;;;;;5.37;3.33;;;0.00;99.90;;;;;;6232438;28;20575;-67
2021/04/07 03:52:33;;;;;;;5.37;3.63;;;0.00;99.90;;;;;;6230573;28;20224;-67
2021/04/07 03:55:35;;;;;;;4.57;3.80;;;0.00;99.90;;;;;;6217126;28;20716;-67
2021/04/07 03:58:37;;;;;;;5.30;4.27;;;0.00;99.90;;;;;;6232121;28;20319;-67
2021/04/07 04:01:39;;;;;;;4.43;3.97;;;0.00;99.90;;;;;;6232246;28;20263;-67
2021/04/07 04:04:41;;;;;;;4.23;3.73;;;0.00;99.90;;;;;;6231273;28;20263;-67
2021/04/07 04:07:43;;;;;;;5.20;4.00;;;0.10;99.90;;;;;;6214758;28;20778;-67
2021/04/07 04:10:44;;;;;;;4.97;3.70;;;0.10;99.90;;;;;;6231615;28;20225;-67
2021/04/07 04:13:46;;;;;;;5.47;3.87;;;0.10;99.90;;;;;;6229830;28;20374;-67
2021/04/07 04:16:48;;;;;;;4.00;3.60;;;0.10;99.90;;;;;;6230458;28;20733;-67
2021/04/07 04:19:50;;;;;;;6.03;3.67;;;0.00;99.90;;;;;;6232605;28;20234;-67
2021/04/07 04:22:52;;;;;;;4.50;3.77;;;0.00;99.90;;;;;;6240240;28;20249;-67
2021/04/07 04:25:54;;;;;;;5.03;3.30;;;0.10;99.90;;;;;;6240971;28;20238;-67
2021/04/07 04:28:56;;;;;;;7.20;3.47;;;0.10;99.90;;;;;;6229699;28;20309;-67
2021/04/07 04:31:58;;;;;;;5.53;3.47;;;0.10;99.90;;;;;;6231001;28;20231;-67
2021/04/07 04:34:59;;;;;;;9.77;3.50;;;0.10;99.90;;;;;;6231995;28;20274;-67
2021/04/07 04:38:01;;;;;;;5.60;3.43;;;0.00;99.90;;;;;;6230248;28;20257;-67
2021/04/07 04:41:03;;;;;;;4.17;3.10;;;0.00;99.90;;;;;;6229651;28;20230;-67
2021/04/07 04:44:05;;;;;;;4.67;2.97;;;-0.10;99.90;;;;;;6229527;28;20227;-67
2021/04/07 04:47:07;;;;;;;3.97;3.00;;;-0.20;99.90;;;;;;6229466;28;20227;-67
2021/04/07 04:50:24;;;;;;;4.00;3.03;;;-0.20;99.90;;;;;;6231153;28;20228;-67
2021/04/07 04:53:25;;;;;;;4.93;3.43;;;-0.30;99.90;;;;;;6231055;28;20366;-67
2021/04/07 04:56:27;;;;;;;3.67;3.27;;;-0.30;99.90;;;;;;6230481;28;20232;-67
2021/04/07 04:59:29;;;;;;;4.30;3.43;;;-0.40;99.90;;;;;;6230680;28;20297;-67
2021/04/07 05:02:31;;;;;;;3.00;2.73;;;-0.40;99.90;;;;;;6231475;28;20227;-67
2021/04/07 05:05:33;;;;;;;4.10;3.60;;;-0.40;99.90;;;;;;6231898;28;20228;-67
2021/04/07 05:08:34;;;;;;;4.53;3.77;;;-0.40;99.90;;;;;;6231089;28;20593;-67
2021/04/07 05:11:37;;;;;;;4.43;3.90;;;-0.30;99.90;;;;;;6234928;28;20231;-67
2021/04/07 05:14:39;;;;;;;5.10;4.20;;;-0.20;99.90;;;;;;6231910;28;20401;-67
2021/04/07 05:17:41;;;;;;;4.77;4.20;;;-0.10;99.90;;;;;;6229579;28;20326;-67
2021/04/07 05:20:43;;;;;;;4.80;3.93;;;0.00;99.90;;;;;;6228738;28;20234;-67
2021/04/07 05:23:45;;;;;;;4.93;3.47;;;0.00;99.90;;;;;;6243999;28;20364;-67
2021/04/07 05:26:46;;;;;;;4.27;3.80;;;0.00;99.90;;;;;;6255361;28;20219;-67
2021/04/07 05:29:48;;;;;;;4.20;3.80;;;0.00;99.90;;;;;;6258888;28;20723;-67
2021/04/07 05:32:50;;;;;;;4.87;3.93;;;-0.10;99.90;;;;;;6257606;28;20231;-67
2021/04/07 05:35:55;;;;;;;4.17;3.60;;;-0.10;99.90;;;;;;6259021;28;20288;-67
2021/04/07 05:38:57;;;;;;;5.03;3.90;;;-0.10;99.90;;;;;;6255306;28;20317;-67
2021/04/07 05:41:59;;;;;;;4.10;3.43;;;-0.10;99.90;;;;;;6254043;28;20238;-67
2021/04/07 05:45:00;;;;;;;4.63;3.67;;;-0.10;99.90;;;;;;6253939;28;20306;-67
2021/04/07 05:48:02;;;;;;;3.40;2.87;;;-0.10;99.90;;;;;;6254255;28;20408;-67
2021/04/07 05:51:06;;;;;;;4.00;3.30;;;0.10;99.90;;;;;;6236863;28;20600;-67
2021/04/07 05:54:08;;;;;;;3.03;2.73;;;0.20;99.90;;;;;;6254208;28;20576;-67
2021/04/07 05:57:09;;;;;;;3.30;3.00;;;0.30;99.90;;;;;;6253360;28;20722;-67
2021/04/07 06:00:12;;;;;;;4.60;3.80;;;0.30;99.90;;;;;;6254867;28;20591;-67
2021/04/07 06:03:14;;;;;;;4.90;3.83;;;0.40;99.90;;;;;;6257144;28;20298;-67
2021/04/07 06:06:16;;;;;;;4.80;4.30;;;0.50;99.90;;;;;;6260026;28;20261;-67
2021/04/07 06:09:18;;;;;;;5.10;4.10;;;0.60;99.90;;;;;;6259186;28;20696;-67
2021/04/07 06:12:20;;;;;;;5.57;4.37;;;0.60;99.90;;;;;;6259347;28;20693;-67
2021/04/07 06:15:22;;;;;;;5.13;4.13;;;0.70;99.90;;;;;;6259125;28;20304;-67
2021/04/07 06:18:24;;;;;;;5.07;4.57;;;0.80;99.90;;;;;;6258145;28;20656;-67
2021/04/07 06:21:25;;;;;;;4.53;4.10;;;0.80;99.90;;;;;;6257372;28;20684;-67
2021/04/07 06:24:27;;;;;;;5.07;3.87;;;0.90;99.90;;;;;;6257167;28;20310;-67
2021/04/07 06:27:29;;;;;;;4.27;3.60;;;0.90;99.90;;;;;;6233505;28;20233;-67
2021/04/07 06:30:44;;;;;;;4.90;3.53;;;1.00;99.90;;;;;;6233225;28;20745;-67
2021/04/07 06:33:46;;;;;;;5.00;3.67;;;1.00;99.90;;;;;;6234000;28;20323;-67
2021/04/07 06:36:48;;;;;;;6.63;3.87;;;1.00;99.90;;;;;;6234136;28;20605;-67
2021/04/07 06:39:50;;;;;;;5.07;3.53;;;1.10;99.90;;;;;;6233930;28;20322;-67
2021/04/07 06:42:52;;;;;;;4.60;3.70;;;1.10;99.90;;;;;;6254926;28;20369;-67
2021/04/07 06:45:54;;;;;;;4.33;3.40;;;1.20;99.90;;;;;;6258391;28;20704;-67
2021/04/07 06:48:57;;;;;;;7.27;3.13;;;1.20;99.90;;;;;;6258632;28;20261;-67
2021/04/07 06:52:02;;;;;;;4.47;3.70;;;1.30;99.90;;;;;;6257071;28;20330;-67
2021/04/07 06:55:06;;;;;;;5.40;3.33;;;1.40;99.90;;;;;;6249320;28;20228;-68
2021/04/07 06:58:09;;;;;;;3.60;3.20;;;1.50;99.90;;;;;;6232005;28;20613;-68
2021/04/07 07:01:12;;;;;;;3.20;2.90;;;1.60;99.90;;;;;;6232360;28;20274;-68
2021/04/07 07:04:14;;;;;;;3.37;3.03;;;1.70;99.90;;;;;;6234218;28;20238;-68
2021/04/07 07:07:16;;;;;;;3.00;2.73;;;1.80;99.90;;;;;;6234013;28;20319;-68
2021/04/07 07:10:18;;;;;;;2.80;2.50;;;2.00;99.90;;;;;;6235019;28;20242;-68
2021/04/07 07:13:25;;;;;;;4.20;3.43;;;2.20;99.90;;;;;;6232744;28;20280;-68
2021/04/07 07:16:28;;;;;;;4.27;3.50;;;2.30;99.90;;;;;;6232263;28;20733;-68
2021/04/07 07:19:34;;;;;;;3.87;3.17;;;2.40;99.90;;;;;;6233290;28;20603;-68
2021/04/07 07:22:36;;;;;;;2.90;2.60;;;2.50;99.90;;;;;;6238885;28;20251;-68
2021/04/07 07:25:39;;;;;;;2.90;2.70;;;2.50;99.90;;;;;;6258236;28;20235;-68
2021/04/07 07:28:56;;;;;;;3.30;2.70;;;2.60;99.90;;;;;;6257045;28;20596;-68
2021/04/07 07:32:04;;;;;;;3.73;2.70;;;2.70;99.90;;;;;;6255656;28;20768;-68
2021/04/07 07:35:08;;;;;;;2.33;2.13;;;2.80;99.90;;;;;;6256892;28;20227;-68
2021/04/07 07:38:10;;;;;;;2.37;2.17;;;3.00;99.90;;;;;;6257052;28;20273;-69
2021/04/07 07:41:12;;;;;;;2.33;2.13;;;3.10;99.90;;;;;;6256005;28;20223;-69
2021/04/07 07:44:16;;;;;;;2.90;2.20;;;3.20;99.90;;;;;;6255330;28;20329;-69
2021/04/07 07:47:27;;;;;;;2.63;2.40;;;3.30;99.90;;;;;;6257723;28;20255;-69
2021/04/07 07:50:43;;;;;;;2.77;1.97;;;3.40;99.90;;;;;;6256277;28;20230;-69
2021/04/07 07:53:48;;;;;;;2.97;2.20;;;3.60;99.90;;;;;;6256111;28;20231;-69
2021/04/07 07:56:52;;;;;;;2.97;2.10;;;3.60;99.90;;;;;;6258051;28;20621;-69
2021/04/07 07:59:58;;;;;;;2.27;2.07;;;3.80;99.90;;;;;;6256655;28;20239;-69
2021/04/07 08:03:15;;;;;;;2.23;2.03;;;3.90;99.90;;;;;;6254572;28;20242;-69
2021/04/07 08:06:17;;;;;;;2.83;1.70;;;4.20;99.90;;;;;;6254855;28;20356;-69
2021/04/07 08:09:22;;;;;;;2.90;1.90;;;4.30;99.10;;;;;;6255502;28;20673;-68
2021/04/07 08:12:24;;;;;;;1.87;1.67;;;4.40;99.30;;;;;;6256277;28;20676;-68
2021/04/07 08:15:27;;;;;;;2.50;1.77;;;4.60;97.30;;;;;;6254305;28;20227;-68
2021/04/07 08:18:30;;;;;;;2.20;1.80;;;4.60;96.10;;;;;;6256577;28;20305;-68
2021/04/07 08:21:34;;;;;;;1.87;1.57;;;4.50;95.50;;;;;;6255385;28;20237;-68
2021/04/07 08:24:36;;;;;;;1.90;1.70;;;4.40;95.70;;;;;;6253883;28;20227;-68
2021/04/07 08:27:41;;;;;;;2.90;2.30;;;4.50;97.60;;;;;;6230509;28;20230;-68
2021/04/07 08:30:44;;;;;;;5.40;2.23;;;4.70;97.00;;;;;;6230197;28;20229;-68
2021/04/07 08:33:51;;;;;;;2.50;2.30;;;4.90;98.90;;;;;;6213726;28;20379;-68
2021/04/07 08:36:52;;;;;;;2.00;1.80;;;5.20;97.10;;;;;;6235708;28;20362;-68
2021/04/07 08:39:55;;;;;;;2.47;2.27;;;5.40;97.80;;;;;;6247294;28;20237;-68
2021/04/07 08:42:57;;;;;;;2.60;2.37;;;5.50;97.30;;;;;;6232868;28;20752;-68
2021/04/07 08:46:13;;;;;;;3.60;3.00;;;5.60;97.10;;;;;;6229411;28;20362;-68
2021/04/07 08:49:36;;;;;;;2.83;2.53;;;5.70;96.30;;;;;;6230882;28;20240;-68
2021/04/07 08:52:47;;;;;;;2.93;2.63;;;5.80;96.20;;;;;;6230017;28;20742;-68
2021/04/07 08:55:54;;;;;;;4.80;3.13;;;5.70;95.30;;;;;;6232262;28;20780;-68
2021/04/07 08:59:03;;;;;;;3.20;2.90;;;5.30;96.50;;;;;;6229139;28;20244;-68
2021/04/07 09:02:08;;;;;;;3.43;3.10;;;4.80;99.90;;;;;;6231355;28;20224;-68
2021/04/07 09:05:11;;;;;;;4.23;3.33;;;4.40;99.90;;;;;;6231340;28;20697;-68
2021/04/07 09:08:20;;;;;;;3.50;3.20;;;4.30;99.90;;;;;;6230503;28;20566;-68
2021/04/07 09:11:35;;;;;;;3.53;3.23;;;4.60;99.90;;;;;;6231135;28;20258;-68
2021/04/07 09:14:38;;;;;;;2.83;2.63;;;4.90;99.90;;;;;;6230551;28;20697;-68
2021/04/07 09:18:06;;;;;;;3.00;2.40;;;5.30;99.90;;;;;;6229802;28;20706;-68
2021/04/07 09:21:21;;;;;;;2.23;2.03;;;5.70;99.90;;;;;;6230037;28;20245;-68
2021/04/07 09:24:29;;;;;;;2.93;2.43;;;5.80;99.90;;;;;;6250533;28;20673;-68
2021/04/07 09:27:32;;;;;;;4.13;3.03;;;5.60;99.40;;;;;;6253097;28;20229;-68
2021/04/07 09:30:48;;;;;;;2.83;2.40;;;5.00;99.90;;;;;;6228900;28;20301;-68
2021/04/07 09:33:52;;;;;;;3.00;2.70;;;4.20;99.90;;;;;;6231504;28;20236;-68
2021/04/07 09:36:55;;;;;;;3.10;2.80;;;4.00;99.90;;;;;;6233829;28;20235;-68
2021/04/07 09:39:59;;;;;;;3.67;2.87;;;4.00;99.90;;;;;;6235485;28;20238;-68
2021/04/07 09:43:02;;;;;;;3.40;2.60;;;4.10;99.90;;;;;;6234699;28;20728;-68
2021/04/07 09:46:05;;;;;;;4.20;3.20;;;4.30;99.90;;;;;;6223027;28;20224;-68
2021/04/07 09:49:10;;;;;;;2.57;2.37;;;4.40;99.90;;;;;;6239101;28;20232;-68
2021/04/07 09:52:12;;;;;;;2.77;2.53;;;4.50;99.90;;;;;;6233685;28;20228;-68
2021/04/07 09:55:25;;;;;;;3.30;2.97;;;4.50;99.90;;;;;;6242412;28;20224;-68
2021/04/07 09:58:27;;;;;;;2.70;2.50;;;4.50;99.90;;;;;;6259536;28;20660;-68
2021/04/07 10:01:38;;;;;;;4.17;2.70;;;4.40;99.90;;;;;;6260022;28;20321;-68
2021/04/07 10:04:43;;;;;;;2.17;1.97;;;4.40;99.90;;;;;;6257923;28;20223;-68
2021/04/07 10:07:45;;;;;;;2.50;2.07;;;4.30;99.90;;;;;;6257821;28;20277;-68
2021/04/07 10:10:46;;;;;;;2.40;2.17;;;4.30;99.90;;;;;;6259330;28;20234;-68
2021/04/07 10:13:49;;;;;;;2.33;2.13;;;4.20;99.90;;;;;;6258516;28;20227;-68
2021/04/07 10:16:51;;;;;;;2.30;2.10;;;4.20;99.90;;;;;;6260151;28;20227;-68
2021/04/07 10:19:54;;;;;;;2.57;2.37;;;4.30;99.90;;;;;;6259261;28;20231;-68
2021/04/07 10:22:56;;;;;;;2.70;2.33;;;4.60;99.90;;;;;;6259115;28;20230;-67
2021/04/07 10:26:03;;;;;;;2.47;2.27;;;4.70;99.90;;;;;;6245579;28;20730;-67
2021/04/07 10:29:05;;;;;;;3.60;1.90;;;5.00;99.90;;;;;;6234338;28;20290;-67
2021/04/07 10:32:18;;;;;;;3.20;2.13;;;5.30;99.90;;;;;;6216193;28;20283;-67
2021/04/07 10:35:22;;;;;;;3.30;2.30;;;5.50;99.90;;;;;;6234344;28;20244;-67
2021/04/07 10:38:29;;;;;;;2.30;2.10;;;5.90;99.90;;;;;;6233447;28;20235;-68
2021/04/07 10:41:31;;;;;;;2.90;2.43;;;6.20;99.90;;;;;;6237353;28;20305;-67
2021/04/07 10:44:35;;;;;;;2.90;2.30;;;6.30;99.90;;;;;;6233009;28;20229;-67
2021/04/07 10:47:37;;;;;;;2.60;2.40;;;6.40;99.90;;;;;;6232262;28;20715;-68
2021/04/07 10:50:42;;;;;;;4.80;2.23;;;6.80;99.90;;;;;;6234663;28;20696;-67
2021/04/07 10:53:44;;;;;;;2.90;2.63;;;6.70;99.90;;;;;;6233555;28;20335;-67
2021/04/07 10:56:46;;;;;;;2.20;2.00;;;6.50;99.90;;;;;;6233603;28;20237;-67
2021/04/07 10:59:48;;;;;;;2.73;2.40;;;6.20;99.90;;;;;;6233157;28;20230;-67
2021/04/07 11:02:52;;;;;;;2.77;2.57;;;6.00;99.90;;;;;;6235002;28;20316;-67
2021/04/07 11:05:54;;;;;;;2.90;2.60;;;5.80;99.90;;;;;;6233700;28;20231;-67
2021/04/07 11:08:56;;;;;;;3.07;2.77;;;5.50;99.90;;;;;;6232847;28;20243;-67
2021/04/07 11:12:00;;;;;;;3.10;2.87;;;5.00;99.90;;;;;;6214803;28;20220;-67
2021/04/07 11:15:05;;;;;;;2.47;2.27;;;4.40;99.90;;;;;;6233906;28;20298;-67
2021/04/07 11:18:08;;;;;;;2.53;2.10;;;4.00;99.90;;;;;;6233844;28;20364;-67
2021/04/07 11:21:14;;;;;;;2.23;2.03;;;3.70;99.90;;;;;;6232704;28;20212;-67
2021/04/07 11:24:16;;;;;;;2.80;2.50;;;3.80;99.90;;;;;;6251449;28;20226;-67
2021/04/07 11:27:18;;;;;;;2.30;2.10;;;3.90;99.90;;;;;;6257050;28;20645;-67
2021/04/07 11:30:21;;;;;;;3.23;2.40;;;3.90;99.90;;;;;;6255235;28;20314;-67
2021/04/07 11:33:27;;;;;;;2.80;2.10;;;3.80;99.90;;;;;;6256768;28;20219;-67
2021/04/07 11:40:04;;;;;;;3.10;2.03;;;3.10;99.90;;;;;;6259368;28;20239;-67
2021/04/07 11:46:14;;;;;;;3.17;2.87;;;3.10;99.90;;;;;;6255967;28;20234;-67
2021/04/07 11:49:16;;;;;;;3.07;2.67;;;3.40;99.90;;;;;;6238910;28;20250;-68
2021/04/07 11:52:18;;;;;;;3.60;2.60;;;3.60;99.90;;;;;;6256714;28;20735;-68
2021/04/07 11:55:20;;;;;;;2.50;2.30;;;3.90;99.90;;;;;;6256202;28;20226;-67
2021/04/07 11:58:22;;;;;;;3.83;2.87;;;4.30;99.90;;;;;;6256686;28;20257;-68
2021/04/07 12:01:23;;;;;;;3.37;2.77;;;4.70;99.90;;;;;;6256343;28;20258;-68
2021/04/07 12:04:27;;;;;;;3.20;2.90;;;5.00;99.90;;;;;;6256480;28;20231;-68
2021/04/07 12:07:30;;;;;;;4.17;2.70;;;5.30;99.90;;;;;;6257764;28;20234;-68
2021/04/07 12:10:31;;;;;;;3.70;3.40;;;5.70;99.90;;;;;;6254699;28;20321;-68
2021/04/07 12:13:33;;;;;;;4.13;3.30;;;6.10;99.90;;;;;;6257067;28;20242;-68
2021/04/07 12:16:37;;;;;;;2.80;2.60;;;6.70;99.90;;;;;;6226655;28;20320;-68
2021/04/07 12:19:39;;;;;;;3.63;2.77;;;7.20;99.90;;;;;;6246323;28;20219;-68
2021/04/07 12:22:42;;;;;;;4.50;2.87;;;7.50;99.90;;;;;;6255186;28;20692;-68
2021/04/07 12:25:45;;;;;;;3.13;2.73;;;7.90;99.90;;;;;;6238504;28;20243;-68
2021/04/07 12:28:47;;;;;;;2.57;2.30;;;8.30;99.90;;;;;;6256629;28;20242;-68
2021/04/07 12:31:49;;;;;;;3.50;2.20;;;8.10;96.10;;;;;;6256832;28;20227;-68
2021/04/07 12:34:51;;;;;;;3.10;2.03;;;7.40;98.50;;;;;;6256588;28;20300;-67
2021/04/07 12:37:53;;;;;;;1.70;1.60;;;6.80;99.90;;;;;;6254781;28;20227;-67
2021/04/07 12:40:57;;;;;;;2.50;1.80;;;6.30;99.90;;;;;;6253864;28;20268;-67
2021/04/07 12:44:00;;;;;;;2.43;1.97;;;6.00;99.90;;;;;;6256039;28;20653;-67
2021/04/07 12:47:02;;;;;;;3.50;2.20;;;5.80;99.90;;;;;;6254659;28;20801;-67
2021/04/07 12:50:04;;;;;;;3.30;2.07;;;5.80;99.90;;;;;;6255093;28;20405;-67
2021/04/07 12:53:06;;;;;;;2.00;1.70;;;6.00;99.90;;;;;;6255387;28;20265;-68
2021/04/07 12:56:10;;;;;;;1.60;1.50;;;6.30;99.90;;;;;;6252975;28;20300;-68
2021/04/07 12:59:11;;;;;;;2.23;2.03;;;6.60;99.90;;;;;;6231454;28;20593;-68
2021/04/07 13:02:14;;;;;;;1.60;1.50;;;7.20;99.90;;;;;;6229442;28;20228;-68
2021/04/07 13:05:16;;;;;;;2.67;1.80;;;7.80;99.90;;;;;;6214153;28;20268;-68
2021/04/07 13:08:19;;;;;;;2.10;1.90;;;8.60;96.50;;;;;;6231759;28;20730;-68
2021/04/07 13:11:20;;;;;;;2.10;1.60;;;9.40;94.30;;;;;;6231812;28;20251;-67
2021/04/07 13:14:22;;;;;;;2.83;2.17;;;9.90;87.80;;;;;;6237107;28;20231;-67
2021/04/07 13:17:24;;;;;;;3.87;2.43;;;9.80;81.40;;;;;;6236599;28;20236;-68
2021/04/07 13:20:29;;;;;;;2.83;1.70;;;9.20;77.70;;;;;;6236384;28;20774;-68
2021/04/07 13:23:31;;;;;;;3.03;2.47;;;8.10;82.00;;;;;;6248697;28;20238;-68
2021/04/07 13:26:33;;;;;;;2.47;2.10;;;7.20;83.00;;;;;;6258834;28;20223;-68
2021/04/07 13:29:35;;;;;;;2.10;1.67;;;6.40;85.60;;;;;;6260766;28;20592;-68
2021/04/07 13:32:43;;;;;;;2.23;1.97;;;5.80;91.50;;;;;;6260121;28;20719;-67
2021/04/07 13:35:51;;;;;;;2.93;1.80;;;5.60;92.80;;;;;;6260036;28;20223;-67
2021/04/07 13:39:25;;;;;;;3.77;2.20;;;5.50;94.00;;;;;;6258614;28;20727;-67
2021/04/07 13:42:46;;;;;;;3.13;1.90;;;5.40;96.30;;;;;;6235743;28;20250;-68
2021/04/07 13:45:48;;;;;;;2.50;2.00;;;5.30;95.70;;;;;;6237065;28;20229;-67
2021/04/07 13:48:52;;;;;;;2.73;2.00;;;5.40;96.80;;;;;;6235376;28;20240;-68
2021/04/07 13:51:54;;;;;;;3.07;1.80;;;5.50;97.50;;;;;;6235524;28;20260;-68
2021/04/07 13:54:57;;;;;;;1.83;1.47;;;5.60;99.90;;;;;;6233268;28;20225;-68
2021/04/07 13:57:59;;;;;;;4.60;1.50;;;6.10;99.30;;;;;;6235569;28;20238;-68
2021/04/07 14:01:01;;;;;;;1.40;1.07;;;6.80;95.80;;;;;;6234261;28;20305;-68
2021/04/07 14:04:03;;;;;;;1.33;1.23;;;7.10;92.30;;;;;;6235498;28;20592;-67
2021/04/07 14:07:08;;;;;;;1.60;1.50;;;7.40;95.60;;;;;;6236327;28;20234;-68
2021/04/07 14:10:13;;;;;;;2.87;2.00;;;7.40;93.10;;;;;;6232447;28;20234;-67
2021/04/07 14:13:16;;;;;;;2.50;1.63;;;7.60;95.70;;;;;;6233611;28;20711;-67
2021/04/07 14:16:18;;;;;;;2.30;1.80;;;7.80;91.00;;;;;;6235307;28;20244;-67
2021/04/07 14:19:20;;;;;;;1.87;1.43;;;8.00;91.20;;;;;;6235031;28;20243;-67
2021/04/07 14:22:22;;;;;;;2.03;1.77;;;8.00;91.20;;;;;;6233765;28;20220;-68
2021/04/07 14:25:26;;;;;;;2.10;1.50;;;7.80;91.10;;;;;;6224173;28;20231;-67
2021/04/07 14:28:28;;;;;;;1.83;1.67;;;7.60;89.90;;;;;;6215649;28;20261;-67
2021/04/07 14:31:32;;;;;;;2.60;1.70;;;7.30;90.90;;;;;;6209340;28;20236;-68
2021/04/07 14:34:34;;;;;;;1.53;1.33;;;6.90;91.30;;;;;;6212540;28;20241;-67
2021/04/07 14:37:38;;;;;;;2.47;1.90;;;6.60;88.40;;;;;;6210020;28;20600;-67
2021/04/07 14:40:40;;;;;;;3.60;1.97;;;6.30;90.60;;;;;;6191968;28;20248;-67
2021/04/07 14:43:43;;;;;;;2.60;1.90;;;6.20;93.10;;;;;;6207974;28;20579;-67
2021/04/07 14:46:45;;;;;;;2.20;1.70;;;6.40;92.60;;;;;;6209279;28;20315;-67
2021/04/07 14:49:48;;;;;;;2.07;1.40;;;6.70;93.40;;;;;;6210674;28;20233;-67
2021/04/07 14:52:52;;;;;;;2.23;1.60;;;7.30;89.90;;;;;;6208013;28;20232;-67
2021/04/07 14:55:54;;;;;;;1.50;1.37;;;7.90;88.00;;;;;;6209710;28;20223;-68
2021/04/07 14:58:56;;;;;;;3.10;1.70;;;8.60;83.90;;;;;;6209398;28;20238;-67
2021/04/07 15:01:59;;;;;;;2.37;1.70;;;9.70;78.00;;;;;;6207980;28;20323;-68
2021/04/07 15:05:01;;;;;;;2.30;1.50;;;11.10;70.80;;;;;;6210399;28;20224;-68
2021/04/07 15:08:03;;;;;;;1.50;1.40;;;12.10;65.10;;;;;;6208110;28;20261;-68
2021/04/07 15:11:05;;;;;;;1.53;1.30;;;12.20;59.50;;;;;;6208842;28;20237;-67
2021/04/07 15:14:08;;;;;;;1.93;1.40;;;11.90;58.90;;;;;;6208307;28;20224;-67
2021/04/07 15:17:09;;;;;;;2.10;1.27;;;11.80;58.10;;;;;;6207502;28;20267;-68
2021/04/07 15:20:15;;;;;;;2.60;1.33;;;11.80;57.50;;;;;;6209384;28;20228;-67
2021/04/07 15:23:17;;;;;;;1.50;1.30;;;11.50;54.70;;;;;;6220352;28;20326;-68
2021/04/07 15:26:22;;;;;;;3.40;1.73;;;10.70;58.00;;;;;;6236020;28;20773;-67
2021/04/07 15:29:25;;;;;;;1.50;1.40;;;9.60;59.30;;;;;;6230966;28;20250;-68
2021/04/07 15:32:27;;;;;;;1.93;1.70;;;8.20;63.20;;;;;;6232343;28;20225;-67
2021/04/07 15:35:29;;;;;;;2.03;1.60;;;7.10;68.80;;;;;;6232780;28;20230;-67
2021/04/07 15:38:35;;;;;;;3.30;2.03;;;6.30;74.30;;;;;;6231479;28;20230;-67
2021/04/07 15:41:38;;;;;;;3.43;2.00;;;5.80;78.30;;;;;;6231283;28;20242;-67
2021/04/07 15:44:40;;;;;;;2.50;1.70;;;5.50;78.60;;;;;;6232269;28;20273;-67
2021/04/07 15:47:43;;;;;;;2.20;1.67;;;5.20;84.60;;;;;;6232683;28;20236;-67
2021/04/07 15:50:46;;;;;;;1.87;1.67;;;4.80;88.60;;;;;;6232995;28;20235;-67
2021/04/07 15:53:48;;;;;;;2.87;2.10;;;4.60;90.10;;;;;;6232380;28;20240;-67
2021/04/07 15:56:50;;;;;;;2.23;1.70;;;4.60;92.20;;;;;;6212237;28;20249;-67
2021/04/07 15:59:54;;;;;;;2.80;1.60;;;4.60;92.00;;;;;;6208020;28;20712;-67
2021/04/07 16:03:00;;;;;;;1.77;1.60;;;4.40;93.60;;;;;;6208994;28;20323;-67
2021/04/07 16:06:03;;;;;;;2.27;1.80;;;4.30;94.90;;;;;;6207985;28;20229;-67
2021/04/07 16:09:06;;;;;;;2.27;1.93;;;4.30;96.30;;;;;;6207457;28;20264;-67
2021/04/07 16:12:10;;;;;;;2.97;2.00;;;4.10;97.50;;;;;;6207847;28;20209;-67